Portada
METAR-TAF:

METAR-TAF

Aeroports :

Nagasaki, Japó

latitud: 32-55N, longitud: 129-55E, altitud: 2 m

Observació

L'informe es va fer fa 8 hores i 36 minuts, a les 12:00 UTC
Vent 11 kt del Nord-Oest
Temperatura 15°C
Humitat 82%
Pressió 1015 hPa
Visibilitat 10 km o més
sense núvols per sota de 1500 mi sense presència de cumulonimbus.

METAR: RJFU 191200Z 31011KT CAVOK 15/12 Q1015

Hora: 05:36 (20:36 UTC)

Pronòstic

L'informe es va fer fa 3 hores i 28 minuts, a les 17:08 UTC
Pronòstic vàlid del 19 a les 18 UTC al 21 a les 00 UTC
Vent 3 kt del Sud-Est
Visibilitat 10 km o més
Escasses núvols a una alçada de 3000 ft
Evolucionant progressivament
l' 20 a les 00 UTC al 20 a les 02 UTC
Vent 10 kt del Nord-Oest
Evolucionant progressivament
l' 20 a les 09 UTC al 20 a les 12 UTC
Vent 4 kt del Sud-Est

TAF: RJFU 191708Z 1918/2100 14003KT 9999 FEW030 BECMG 2000/2002 32010KT BECMG 2009/2012 14004KT

Observacions i pronòstics meteorològics de més de 4000 aeroports (METAR i TAF).

Les estacions disponibles són els punts grocs i vermells al mapa.

Posi el ratolí al punt desitjat per veure el nom de l'estació.

Feu clic per veure les observacions i els pronòstics meteorològics.

Per canviar el mapa: feu clic els botons verds amb una creu de color negre per apropar; al botó verd amb un guió per allunyar la imatge; o en les fletxes verdes per a mapes adjacents.


METAR-TAF: